createdAt,value
2023-01-19T00:04:28.113Z,90.60
2023-01-19T00:09:31.635Z,90.60
2023-01-19T00:14:33.758Z,90.50
2023-01-19T00:19:35.857Z,90.60
2023-01-19T00:24:39.457Z,90.60
2023-01-19T00:29:41.561Z,90.70
2023-01-19T00:34:43.711Z,90.60
2023-01-19T00:39:47.324Z,90.60
2023-01-19T00:44:49.440Z,90.70
2023-01-19T00:49:51.571Z,91.10
2023-01-19T00:54:55.017Z,90.70
2023-01-19T00:59:57.159Z,90.70
2023-01-19T01:04:59.791Z,90.70
2023-01-19T01:10:03.422Z,90.70
2023-01-19T01:15:07.124Z,90.70
2023-01-19T01:20:11.056Z,90.60
2023-01-19T01:25:16.068Z,90.60
2023-01-19T01:30:19.275Z,90.70
2023-01-19T01:35:21.451Z,90.60
2023-01-19T01:40:25.007Z,90.70
2023-01-19T01:45:32.761Z,90.70
2023-01-19T01:50:38.587Z,90.70
2023-01-19T01:55:46.542Z,90.70
2023-01-19T02:00:51.851Z,90.60
2023-01-19T02:05:55.416Z,90.60
2023-01-19T02:11:01.707Z,90.70
2023-01-19T02:16:07.657Z,90.70
2023-01-19T02:21:14.449Z,90.70
2023-01-19T02:26:20.990Z,90.70
2023-01-19T02:31:23.757Z,90.70
2023-01-19T02:36:29.322Z,90.60
2023-01-19T02:41:38.482Z,90.70
2023-01-19T02:46:40.646Z,90.70
2023-01-19T02:51:44.073Z,90.70
2023-01-19T02:57:11.219Z,90.70
2023-01-19T03:02:26.847Z,90.60
2023-01-19T03:07:42.371Z,90.60
2023-01-19T03:12:52.699Z,90.60
2023-01-19T03:17:58.075Z,90.60
2023-01-19T03:23:04.757Z,90.50
2023-01-19T03:28:08.392Z,90.50
2023-01-19T03:33:17.704Z,90.50
2023-01-19T03:38:25.307Z,90.60
2023-01-19T03:43:30.767Z,90.70
2023-01-19T03:48:33.798Z,90.70
2023-01-19T03:53:36.867Z,90.80
2023-01-19T03:58:40.419Z,90.70
2023-01-19T04:03:42.733Z,90.80
2023-01-19T04:08:45.421Z,90.80
2023-01-19T04:13:48.949Z,90.70
2023-01-19T04:18:51.064Z,90.80
2023-01-19T04:23:53.172Z,90.80
2023-01-19T04:28:57.772Z,90.80
2023-01-19T04:33:59.840Z,90.80
2023-01-19T04:39:01.969Z,90.80
2023-01-19T04:44:05.660Z,90.80
2023-01-19T04:49:08.619Z,90.80
2023-01-19T04:54:12.351Z,90.80
2023-01-19T04:59:15.920Z,90.80
2023-01-19T05:04:17.994Z,90.80
2023-01-19T05:09:20.780Z,90.80
2023-01-19T05:14:24.375Z,90.80
2023-01-19T05:19:26.539Z,90.80
2023-01-19T05:24:28.654Z,90.80
2023-01-19T05:29:32.294Z,90.80
2023-01-19T05:34:34.456Z,90.70
2023-01-19T05:39:36.599Z,90.70
2023-01-19T05:44:40.116Z,90.80
2023-01-19T05:49:42.304Z,90.80
2023-01-19T05:54:44.617Z,90.70
2023-01-19T05:59:48.158Z,90.70
2023-01-19T06:04:50.287Z,90.70
2023-01-19T06:09:52.344Z,90.70
2023-01-19T06:14:55.911Z,90.70
2023-01-19T06:19:58.102Z,90.70
2023-01-19T06:25:00.256Z,90.70
2023-01-19T06:30:04.278Z,90.70
2023-01-19T06:35:09.761Z,90.80
2023-01-19T06:40:14.316Z,91.10
2023-01-19T06:45:18.302Z,90.70
2023-01-19T06:50:20.481Z,90.60
2023-01-19T06:55:22.572Z,90.60
2023-01-19T07:00:28.908Z,90.60
2023-01-19T07:05:30.973Z,90.60
2023-01-19T07:11:26.217Z,90.60
2023-01-19T07:15:56.635Z,91.00
2023-01-19T07:20:59.752Z,90.50
2023-01-19T07:26:01.926Z,90.60
2023-01-19T07:31:06.162Z,90.70
2023-01-19T07:36:11.206Z,90.80
2023-01-19T07:41:13.310Z,90.80
2023-01-19T07:46:16.888Z,90.80
2023-01-19T07:51:19.147Z,90.80
2023-01-19T07:56:23.161Z,90.90
2023-01-19T08:01:26.795Z,90.90
2023-01-19T08:06:34.458Z,91.20
2023-01-19T08:11:36.701Z,91.00
2023-01-19T08:16:40.477Z,90.80
2023-01-19T08:21:42.698Z,90.70
2023-01-19T08:26:44.998Z,90.70
2023-01-19T08:31:48.584Z,90.70
2023-01-19T08:36:50.849Z,90.80
2023-01-19T08:41:53.385Z,90.80
2023-01-19T08:46:56.896Z,90.80
2023-01-19T08:51:58.997Z,90.70
2023-01-19T08:57:01.095Z,90.70
2023-01-19T09:02:06.492Z,90.60
2023-01-19T09:07:08.636Z,90.60
2023-01-19T09:12:10.756Z,90.70
2023-01-19T09:17:14.267Z,90.80
2023-01-19T09:22:16.392Z,90.90
2023-01-19T09:27:21.499Z,90.90
2023-01-19T09:32:25.002Z,90.90
2023-01-19T09:37:30.002Z,91.00
2023-01-19T09:42:40.513Z,91.10
2023-01-19T09:47:45.593Z,91.10
2023-01-19T09:52:59.035Z,91.10
2023-01-19T09:58:02.411Z,91.00
2023-01-19T10:03:15.317Z,91.00
2023-01-19T10:08:24.501Z,90.90
2023-01-19T10:13:36.580Z,90.90
2023-01-19T10:18:44.378Z,90.80
2023-01-19T10:23:50.965Z,90.70
2023-01-19T10:28:57.825Z,90.80
2023-01-19T10:34:01.503Z,90.70
2023-01-19T10:39:04.999Z,90.70
2023-01-19T10:44:07.266Z,90.80
2023-01-19T10:49:25.630Z,91.10
2023-01-19T10:54:31.455Z,90.80
2023-01-19T10:59:36.588Z,90.80
2023-01-19T11:04:40.110Z,90.70
2023-01-19T11:09:42.260Z,90.50
2023-01-19T11:14:45.000Z,90.30
2023-01-19T11:19:58.001Z,90.20
2023-01-19T11:25:01.576Z,87.80
2023-01-19T11:30:08.876Z,86.80
2023-01-19T11:35:29.198Z,84.90
2023-01-19T11:40:34.156Z,86.20
2023-01-19T11:45:36.695Z,84.80
2023-01-19T11:50:44.769Z,83.90
2023-01-19T11:55:54.989Z,83.80
2023-01-19T12:01:02.391Z,83.60
2023-01-19T12:06:07.639Z,83.20
2023-01-19T12:11:16.445Z,82.50
2023-01-19T12:16:23.465Z,81.20
2023-01-19T12:21:25.687Z,81.30
2023-01-19T12:26:37.097Z,81.40
2023-01-19T12:31:40.474Z,79.10
2023-01-19T12:36:42.739Z,79.90
2023-01-19T12:41:46.712Z,78.90
2023-01-19T12:46:51.778Z,78.30
2023-01-19T12:52:11.090Z,77.50
2023-01-19T12:57:23.409Z,76.80
2023-01-19T13:02:53.673Z,75.40
2023-01-19T13:08:49.474Z,72.90
2023-01-19T13:14:24.834Z,71.30
2023-01-19T13:19:46.016Z,71.50
2023-01-19T13:25:13.402Z,72.70
2023-01-19T13:30:19.471Z,73.40
2023-01-19T13:35:24.059Z,73.00
2023-01-19T13:40:34.201Z,72.40
2023-01-19T13:45:37.818Z,72.00
2023-01-19T13:50:41.547Z,72.60
2023-01-19T13:55:43.672Z,73.30
2023-01-19T14:00:46.026Z,74.60
2023-01-19T14:05:52.976Z,75.30
2023-01-19T14:11:02.572Z,74.20
2023-01-19T14:16:07.000Z,74.80
2023-01-19T14:21:12.226Z,75.80
2023-01-19T14:26:40.929Z,76.10
2023-01-19T14:31:44.223Z,75.50
2023-01-19T14:36:51.778Z,76.10
2023-01-19T14:41:59.537Z,75.80
2023-01-19T14:47:02.197Z,76.30
2023-01-19T14:52:08.602Z,76.70
2023-01-19T14:57:12.612Z,76.40
2023-01-19T15:02:14.910Z,76.90
2023-01-19T15:07:19.488Z,76.90
2023-01-19T15:12:26.201Z,76.80
2023-01-19T15:17:28.595Z,77.10
2023-01-19T15:22:32.295Z,77.20
2023-01-19T15:27:34.467Z,77.30
2023-01-19T15:32:36.805Z,77.60
2023-01-19T15:37:40.463Z,77.80
2023-01-19T15:42:43.162Z,77.80
2023-01-19T15:47:45.429Z,78.10
2023-01-19T15:52:49.060Z,78.40
2023-01-19T15:57:51.210Z,78.60
2023-01-19T16:02:53.403Z,78.90
2023-01-19T16:07:57.947Z,79.10
2023-01-19T16:12:59.986Z,79.30
2023-01-19T16:18:02.131Z,79.50
2023-01-19T16:23:14.751Z,79.60
2023-01-19T16:28:17.202Z,79.90
2023-01-19T16:33:20.506Z,80.00
2023-01-19T16:38:24.209Z,80.20
2023-01-19T16:43:28.277Z,80.20
2023-01-19T16:48:30.748Z,80.30
2023-01-19T16:53:34.551Z,80.50
2023-01-19T16:58:36.770Z,80.70
2023-01-19T17:03:39.652Z,80.90
2023-01-19T17:08:44.075Z,81.10
2023-01-19T17:13:46.416Z,81.20
2023-01-19T17:18:48.541Z,81.20
2023-01-19T17:23:53.479Z,81.30
2023-01-19T17:28:58.778Z,81.50
2023-01-19T17:34:01.897Z,81.90
2023-01-19T17:39:09.652Z,82.10
2023-01-19T17:44:12.067Z,82.30
2023-01-19T17:49:14.242Z,82.40
2023-01-19T17:54:19.042Z,82.50
2023-01-19T17:59:21.121Z,82.60
2023-01-19T18:04:24.000Z,82.80
2023-01-19T18:09:28.194Z,82.90
2023-01-19T18:14:31.894Z,83.10
2023-01-19T18:19:35.226Z,83.20
2023-01-19T18:24:40.536Z,83.40
2023-01-19T18:29:44.244Z,83.40
2023-01-19T18:34:46.763Z,83.50
2023-01-19T18:39:52.868Z,83.50
2023-01-19T18:44:55.055Z,83.60
2023-01-19T18:50:12.579Z,83.60
2023-01-19T18:55:20.307Z,83.70
2023-01-19T19:00:22.906Z,83.70
2023-01-19T19:05:25.173Z,83.80
2023-01-19T19:10:37.024Z,83.90
2023-01-19T19:15:39.577Z,84.10
2023-01-19T19:20:51.155Z,84.00
2023-01-19T19:26:00.708Z,84.10
2023-01-19T19:31:05.620Z,84.20
2023-01-19T19:36:09.502Z,84.20
2023-01-19T19:41:15.396Z,84.30
2023-01-19T19:46:19.391Z,84.50
2023-01-19T19:51:23.612Z,84.60
2023-01-19T19:56:28.693Z,84.70
2023-01-19T20:01:34.574Z,84.70
2023-01-19T20:06:38.976Z,84.60
2023-01-19T20:11:43.884Z,84.70
2023-01-19T20:16:46.058Z,84.70
2023-01-19T20:21:48.136Z,84.70
2023-01-19T20:26:52.970Z,84.90
2023-01-19T20:31:57.841Z,85.00
2023-01-19T20:37:15.201Z,85.00
2023-01-19T20:42:18.902Z,85.10
2023-01-19T20:47:21.485Z,85.20
2023-01-19T20:52:23.626Z,85.20
2023-01-19T20:57:27.133Z,85.30
2023-01-19T21:02:29.268Z,85.50
2023-01-19T21:07:31.412Z,85.70
2023-01-19T21:12:40.044Z,85.90
2023-01-19T21:17:43.758Z,86.10
2023-01-19T21:22:47.323Z,86.10
2023-01-19T21:27:50.911Z,86.00
2023-01-19T21:32:53.172Z,86.10
2023-01-19T21:37:55.498Z,86.00
2023-01-19T21:42:59.158Z,85.90
2023-01-19T21:48:01.289Z,85.80
2023-01-19T21:53:03.562Z,85.60
2023-01-19T21:58:07.162Z,85.40
2023-01-19T22:03:10.272Z,85.40
2023-01-19T22:08:12.453Z,85.50
2023-01-19T22:13:16.092Z,85.50
2023-01-19T22:18:18.281Z,85.60
2023-01-19T22:23:20.459Z,85.70
2023-01-19T22:28:24.057Z,85.80
2023-01-19T22:33:28.431Z,85.80
2023-01-19T22:38:30.508Z,85.90
2023-01-19T22:43:34.024Z,86.00
2023-01-19T22:48:36.629Z,86.10
2023-01-19T22:53:38.784Z,86.10
2023-01-19T22:58:43.119Z,86.20
2023-01-19T23:03:45.308Z,86.30
2023-01-19T23:08:47.993Z,86.30
2023-01-19T23:13:51.862Z,86.30
2023-01-19T23:18:55.575Z,86.50
2023-01-19T23:24:02.622Z,86.40
2023-01-19T23:29:06.657Z,86.40
2023-01-19T23:34:10.472Z,86.50
2023-01-19T23:39:16.092Z,86.30
2023-01-19T23:44:19.847Z,86.60
2023-01-19T23:49:22.058Z,86.70
2023-01-19T23:54:24.303Z,86.80
2023-01-19T23:59:27.862Z,86.80
